sensor_id;sensor_type;location;lat;lon;timestamp;P1;durP1;ratioP1;P2;durP2;ratioP2
16393;SDS011;8306;51.128;4.476;2022-12-07T00:01:54;9.37;;;8.57;;
16393;SDS011;8306;51.128;4.476;2022-12-07T00:04:21;10.60;;;9.70;;
16393;SDS011;8306;51.128;4.476;2022-12-07T00:06:50;8.70;;;8.00;;
16393;SDS011;8306;51.128;4.476;2022-12-07T00:09:14;10.80;;;9.80;;
16393;SDS011;8306;51.128;4.476;2022-12-07T00:11:40;10.03;;;9.13;;
16393;SDS011;8306;51.128;4.476;2022-12-07T00:14:07;9.47;;;8.57;;
16393;SDS011;8306;51.128;4.476;2022-12-07T00:16:33;9.90;;;9.00;;
16393;SDS011;8306;51.128;4.476;2022-12-07T00:19:00;10.83;;;9.47;;
16393;SDS011;8306;51.128;4.476;2022-12-07T00:21:27;10.90;;;9.80;;
16393;SDS011;8306;51.128;4.476;2022-12-07T00:23:53;13.23;;;10.37;;
16393;SDS011;8306;51.128;4.476;2022-12-07T00:26:23;12.50;;;11.40;;
16393;SDS011;8306;51.128;4.476;2022-12-07T00:28:55;9.93;;;9.10;;
16393;SDS011;8306;51.128;4.476;2022-12-07T00:31:21;11.57;;;10.57;;
16393;SDS011;8306;51.128;4.476;2022-12-07T00:33:47;10.40;;;9.50;;
16393;SDS011;8306;51.128;4.476;2022-12-07T00:36:15;11.43;;;10.50;;
16393;SDS011;8306;51.128;4.476;2022-12-07T00:38:40;10.83;;;9.83;;
16393;SDS011;8306;51.128;4.476;2022-12-07T00:41:13;9.70;;;8.90;;
16393;SDS011;8306;51.128;4.476;2022-12-07T00:43:43;10.20;;;9.20;;
16393;SDS011;8306;51.128;4.476;2022-12-07T00:46:08;11.63;;;10.50;;
16393;SDS011;8306;51.128;4.476;2022-12-07T00:48:35;10.10;;;9.30;;
16393;SDS011;8306;51.128;4.476;2022-12-07T00:51:01;14.40;;;13.10;;
16393;SDS011;8306;51.128;4.476;2022-12-07T00:53:28;12.80;;;11.70;;
16393;SDS011;8306;51.128;4.476;2022-12-07T00:55:54;11.90;;;10.70;;
16393;SDS011;8306;51.128;4.476;2022-12-07T00:58:21;12.27;;;11.03;;
16393;SDS011;8306;51.128;4.476;2022-12-07T01:00:47;10.50;;;9.50;;
16393;SDS011;8306;51.128;4.476;2022-12-07T01:03:14;11.50;;;10.40;;
16393;SDS011;8306;51.128;4.476;2022-12-07T01:05:40;11.20;;;10.17;;
16393;SDS011;8306;51.128;4.476;2022-12-07T01:08:06;12.97;;;11.90;;
16393;SDS011;8306;51.128;4.476;2022-12-07T01:10:33;11.53;;;10.43;;
16393;SDS011;8306;51.128;4.476;2022-12-07T01:12:59;10.23;;;9.33;;
16393;SDS011;8306;51.128;4.476;2022-12-07T01:15:26;12.63;;;11.57;;
16393;SDS011;8306;51.128;4.476;2022-12-07T01:17:53;13.03;;;11.57;;
16393;SDS011;8306;51.128;4.476;2022-12-07T01:20:19;12.47;;;11.47;;
16393;SDS011;8306;51.128;4.476;2022-12-07T01:22:45;11.70;;;10.60;;
16393;SDS011;8306;51.128;4.476;2022-12-07T01:25:12;17.33;;;13.93;;
16393;SDS011;8306;51.128;4.476;2022-12-07T01:27:38;14.57;;;13.27;;
16393;SDS011;8306;51.128;4.476;2022-12-07T01:30:05;14.27;;;12.90;;
16393;SDS011;8306;51.128;4.476;2022-12-07T01:32:32;13.67;;;12.37;;
16393;SDS011;8306;51.128;4.476;2022-12-07T01:34:58;11.00;;;10.07;;
16393;SDS011;8306;51.128;4.476;2022-12-07T01:37:24;12.23;;;11.23;;
16393;SDS011;8306;51.128;4.476;2022-12-07T01:39:51;13.53;;;12.43;;
16393;SDS011;8306;51.128;4.476;2022-12-07T01:42:18;13.70;;;12.33;;
16393;SDS011;8306;51.128;4.476;2022-12-07T01:47:46;12.90;;;11.83;;
16393;SDS011;8306;51.128;4.476;2022-12-07T01:50:11;10.03;;;9.23;;
16393;SDS011;8306;51.128;4.476;2022-12-07T01:52:37;13.30;;;11.97;;
16393;SDS011;8306;51.128;4.476;2022-12-07T01:55:04;16.53;;;14.87;;
16393;SDS011;8306;51.128;4.476;2022-12-07T01:57:30;16.00;;;14.43;;
16393;SDS011;8306;51.128;4.476;2022-12-07T01:59:57;15.67;;;14.07;;
16393;SDS011;8306;51.128;4.476;2022-12-07T02:02:27;14.97;;;13.67;;
16393;SDS011;8306;51.128;4.476;2022-12-07T02:04:53;13.73;;;12.63;;
16393;SDS011;8306;51.128;4.476;2022-12-07T02:07:20;17.17;;;15.07;;
16393;SDS011;8306;51.128;4.476;2022-12-07T02:09:45;12.63;;;11.63;;
16393;SDS011;8306;51.128;4.476;2022-12-07T02:12:12;15.47;;;14.13;;
16393;SDS011;8306;51.128;4.476;2022-12-07T02:14:38;11.37;;;10.47;;
16393;SDS011;8306;51.128;4.476;2022-12-07T02:17:12;16.17;;;14.53;;
16393;SDS011;8306;51.128;4.476;2022-12-07T02:22:40;12.07;;;11.03;;
16393;SDS011;8306;51.128;4.476;2022-12-07T02:30:33;14.53;;;13.33;;
16393;SDS011;8306;51.128;4.476;2022-12-07T02:33:00;14.97;;;13.57;;
16393;SDS011;8306;51.128;4.476;2022-12-07T02:35:39;13.50;;;12.20;;
16393;SDS011;8306;51.128;4.476;2022-12-07T02:43:24;13.43;;;12.37;;
16393;SDS011;8306;51.128;4.476;2022-12-07T02:45:53;13.90;;;12.50;;
16393;SDS011;8306;51.128;4.476;2022-12-07T02:48:19;15.87;;;14.20;;
16393;SDS011;8306;51.128;4.476;2022-12-07T02:50:48;12.23;;;11.23;;
16393;SDS011;8306;51.128;4.476;2022-12-07T02:53:34;14.23;;;12.93;;
16393;SDS011;8306;51.128;4.476;2022-12-07T03:01:17;17.57;;;11.97;;
16393;SDS011;8306;51.128;4.476;2022-12-07T03:03:48;9.40;;;8.60;;
16393;SDS011;8306;51.128;4.476;2022-12-07T03:06:16;11.70;;;10.63;;
16393;SDS011;8306;51.128;4.476;2022-12-07T03:08:56;13.43;;;12.10;;
16393;SDS011;8306;51.128;4.476;2022-12-07T03:14:21;11.37;;;10.10;;
16393;SDS011;8306;51.128;4.476;2022-12-07T03:19:21;10.63;;;9.70;;
16393;SDS011;8306;51.128;4.476;2022-12-07T03:21:49;10.37;;;9.47;;
16393;SDS011;8306;51.128;4.476;2022-12-07T03:24:31;9.87;;;8.93;;
16393;SDS011;8306;51.128;4.476;2022-12-07T03:26:59;11.07;;;9.60;;
16393;SDS011;8306;51.128;4.476;2022-12-07T03:29:37;10.67;;;9.63;;
16393;SDS011;8306;51.128;4.476;2022-12-07T03:32:05;11.17;;;9.30;;
16393;SDS011;8306;51.128;4.476;2022-12-07T03:34:31;9.00;;;8.20;;
16393;SDS011;8306;51.128;4.476;2022-12-07T03:37:12;11.23;;;10.13;;
16393;SDS011;8306;51.128;4.476;2022-12-07T03:39:38;8.30;;;7.50;;
16393;SDS011;8306;51.128;4.476;2022-12-07T03:42:03;10.43;;;9.20;;
16393;SDS011;8306;51.128;4.476;2022-12-07T03:44:30;10.37;;;9.47;;
16393;SDS011;8306;51.128;4.476;2022-12-07T03:52:09;8.90;;;8.10;;
16393;SDS011;8306;51.128;4.476;2022-12-07T03:54:44;9.83;;;8.53;;
16393;SDS011;8306;51.128;4.476;2022-12-07T03:57:26;9.70;;;8.67;;
16393;SDS011;8306;51.128;4.476;2022-12-07T03:59:53;9.03;;;8.23;;
16393;SDS011;8306;51.128;4.476;2022-12-07T04:02:19;10.03;;;9.10;;
16393;SDS011;8306;51.128;4.476;2022-12-07T04:04:46;8.83;;;8.00;;
16393;SDS011;8306;51.128;4.476;2022-12-07T04:07:12;10.07;;;8.90;;
16393;SDS011;8306;51.128;4.476;2022-12-07T04:09:39;8.70;;;7.83;;
16393;SDS011;8306;51.128;4.476;2022-12-07T04:12:05;8.30;;;7.60;;
16393;SDS011;8306;51.128;4.476;2022-12-07T04:14:32;10.57;;;8.17;;
16393;SDS011;8306;51.128;4.476;2022-12-07T04:16:58;11.90;;;9.33;;
16393;SDS011;8306;51.128;4.476;2022-12-07T04:19:26;10.00;;;9.00;;
16393;SDS011;8306;51.128;4.476;2022-12-07T04:21:51;8.60;;;7.80;;
16393;SDS011;8306;51.128;4.476;2022-12-07T04:24:18;9.77;;;8.80;;
16393;SDS011;8306;51.128;4.476;2022-12-07T04:26:44;9.70;;;8.23;;
16393;SDS011;8306;51.128;4.476;2022-12-07T04:29:11;10.97;;;9.17;;
16393;SDS011;8306;51.128;4.476;2022-12-07T04:31:37;10.00;;;9.00;;
16393;SDS011;8306;51.128;4.476;2022-12-07T04:34:04;9.93;;;8.93;;
16393;SDS011;8306;51.128;4.476;2022-12-07T04:36:30;10.40;;;7.93;;
16393;SDS011;8306;51.128;4.476;2022-12-07T04:38:56;9.40;;;8.53;;
16393;SDS011;8306;51.128;4.476;2022-12-07T04:41:23;10.43;;;9.40;;
16393;SDS011;8306;51.128;4.476;2022-12-07T04:43:49;9.53;;;8.47;;
16393;SDS011;8306;51.128;4.476;2022-12-07T04:46:16;9.60;;;8.70;;
16393;SDS011;8306;51.128;4.476;2022-12-07T04:48:42;10.17;;;9.17;;
16393;SDS011;8306;51.128;4.476;2022-12-07T04:51:09;14.80;;;11.80;;
16393;SDS011;8306;51.128;4.476;2022-12-07T04:53:35;10.50;;;8.07;;
16393;SDS011;8306;51.128;4.476;2022-12-07T04:56:02;14.83;;;11.23;;
16393;SDS011;8306;51.128;4.476;2022-12-07T04:58:28;12.50;;;9.43;;
16393;SDS011;8306;51.128;4.476;2022-12-07T05:00:55;10.83;;;9.83;;
16393;SDS011;8306;51.128;4.476;2022-12-07T05:03:21;12.30;;;10.97;;
16393;SDS011;8306;51.128;4.476;2022-12-07T05:05:48;11.60;;;10.47;;
16393;SDS011;8306;51.128;4.476;2022-12-07T05:08:14;12.07;;;10.80;;
16393;SDS011;8306;51.128;4.476;2022-12-07T05:10:41;13.33;;;11.00;;
16393;SDS011;8306;51.128;4.476;2022-12-07T05:13:07;9.67;;;8.67;;
16393;SDS011;8306;51.128;4.476;2022-12-07T05:15:34;11.20;;;9.87;;
16393;SDS011;8306;51.128;4.476;2022-12-07T05:18:00;8.20;;;7.37;;
16393;SDS011;8306;51.128;4.476;2022-12-07T05:20:26;12.80;;;10.03;;
16393;SDS011;8306;51.128;4.476;2022-12-07T05:22:53;11.47;;;10.40;;
16393;SDS011;8306;51.128;4.476;2022-12-07T05:25:19;12.67;;;9.87;;
16393;SDS011;8306;51.128;4.476;2022-12-07T05:27:46;14.27;;;11.47;;
16393;SDS011;8306;51.128;4.476;2022-12-07T05:30:12;12.63;;;11.33;;
16393;SDS011;8306;51.128;4.476;2022-12-07T05:32:39;15.10;;;11.40;;
16393;SDS011;8306;51.128;4.476;2022-12-07T05:35:05;9.33;;;8.47;;
16393;SDS011;8306;51.128;4.476;2022-12-07T05:37:32;9.17;;;8.30;;
16393;SDS011;8306;51.128;4.476;2022-12-07T05:39:58;13.90;;;11.63;;
16393;SDS011;8306;51.128;4.476;2022-12-07T05:42:25;10.93;;;9.83;;
16393;SDS011;8306;51.128;4.476;2022-12-07T05:44:51;9.03;;;8.13;;
16393;SDS011;8306;51.128;4.476;2022-12-07T05:47:18;11.43;;;10.23;;
16393;SDS011;8306;51.128;4.476;2022-12-07T05:49:44;9.80;;;8.23;;
16393;SDS011;8306;51.128;4.476;2022-12-07T05:52:11;9.80;;;9.00;;
16393;SDS011;8306;51.128;4.476;2022-12-07T05:54:37;7.17;;;6.50;;
16393;SDS011;8306;51.128;4.476;2022-12-07T05:57:04;7.97;;;7.33;;
16393;SDS011;8306;51.128;4.476;2022-12-07T05:59:30;7.80;;;7.10;;
16393;SDS011;8306;51.128;4.476;2022-12-07T06:01:58;8.23;;;6.93;;
16393;SDS011;8306;51.128;4.476;2022-12-07T06:04:24;8.60;;;7.70;;
16393;SDS011;8306;51.128;4.476;2022-12-07T06:06:50;7.97;;;7.10;;
16393;SDS011;8306;51.128;4.476;2022-12-07T06:09:16;9.73;;;7.80;;
16393;SDS011;8306;51.128;4.476;2022-12-07T06:11:43;6.60;;;6.00;;
16393;SDS011;8306;51.128;4.476;2022-12-07T06:14:27;10.70;;;8.23;;
16393;SDS011;8306;51.128;4.476;2022-12-07T06:16:54;9.20;;;7.73;;
16393;SDS011;8306;51.128;4.476;2022-12-07T06:19:20;11.03;;;6.70;;
16393;SDS011;8306;51.128;4.476;2022-12-07T06:21:47;9.03;;;6.83;;
16393;SDS011;8306;51.128;4.476;2022-12-07T06:24:14;7.33;;;6.10;;
16393;SDS011;8306;51.128;4.476;2022-12-07T06:26:40;8.27;;;7.33;;
16393;SDS011;8306;51.128;4.476;2022-12-07T06:29:06;7.33;;;6.63;;
16393;SDS011;8306;51.128;4.476;2022-12-07T06:31:33;7.30;;;6.60;;
16393;SDS011;8306;51.128;4.476;2022-12-07T06:33:59;6.93;;;6.30;;
16393;SDS011;8306;51.128;4.476;2022-12-07T06:36:28;13.60;;;8.23;;
16393;SDS011;8306;51.128;4.476;2022-12-07T06:38:55;11.00;;;7.73;;
16393;SDS011;8306;51.128;4.476;2022-12-07T06:41:21;7.23;;;6.60;;
16393;SDS011;8306;51.128;4.476;2022-12-07T06:43:48;9.57;;;6.53;;
16393;SDS011;8306;51.128;4.476;2022-12-07T06:46:14;8.43;;;6.30;;
16393;SDS011;8306;51.128;4.476;2022-12-07T06:48:41;6.83;;;6.10;;
16393;SDS011;8306;51.128;4.476;2022-12-07T06:51:07;6.83;;;6.13;;
16393;SDS011;8306;51.128;4.476;2022-12-07T06:53:34;7.87;;;7.00;;
16393;SDS011;8306;51.128;4.476;2022-12-07T06:56:00;7.37;;;6.30;;
16393;SDS011;8306;51.128;4.476;2022-12-07T06:58:27;6.73;;;6.13;;
16393;SDS011;8306;51.128;4.476;2022-12-07T07:00:53;9.17;;;6.23;;
16393;SDS011;8306;51.128;4.476;2022-12-07T07:03:20;9.37;;;6.90;;
16393;SDS011;8306;51.128;4.476;2022-12-07T07:05:46;5.93;;;5.33;;
16393;SDS011;8306;51.128;4.476;2022-12-07T07:08:13;8.00;;;6.37;;
16393;SDS011;8306;51.128;4.476;2022-12-07T07:10:39;7.57;;;6.10;;
16393;SDS011;8306;51.128;4.476;2022-12-07T07:13:05;8.30;;;6.77;;
16393;SDS011;8306;51.128;4.476;2022-12-07T07:15:32;6.17;;;5.63;;
16393;SDS011;8306;51.128;4.476;2022-12-07T07:17:58;6.30;;;5.50;;
16393;SDS011;8306;51.128;4.476;2022-12-07T07:20:25;8.63;;;6.33;;
16393;SDS011;8306;51.128;4.476;2022-12-07T07:22:53;5.90;;;5.27;;
16393;SDS011;8306;51.128;4.476;2022-12-07T07:25:18;8.77;;;6.13;;
16393;SDS011;8306;51.128;4.476;2022-12-07T07:27:44;7.13;;;5.50;;
16393;SDS011;8306;51.128;4.476;2022-12-07T07:30:11;6.63;;;5.97;;
16393;SDS011;8306;51.128;4.476;2022-12-07T07:32:37;10.73;;;8.10;;
16393;SDS011;8306;51.128;4.476;2022-12-07T07:35:04;6.03;;;5.20;;
16393;SDS011;8306;51.128;4.476;2022-12-07T07:37:30;7.30;;;6.53;;
16393;SDS011;8306;51.128;4.476;2022-12-07T07:39:57;8.00;;;6.50;;
16393;SDS011;8306;51.128;4.476;2022-12-07T07:42:23;7.43;;;6.67;;
16393;SDS011;8306;51.128;4.476;2022-12-07T07:44:50;8.50;;;6.80;;
16393;SDS011;8306;51.128;4.476;2022-12-07T07:47:16;7.07;;;6.47;;
16393;SDS011;8306;51.128;4.476;2022-12-07T07:49:43;7.67;;;6.97;;
16393;SDS011;8306;51.128;4.476;2022-12-07T07:52:09;7.77;;;7.07;;
16393;SDS011;8306;51.128;4.476;2022-12-07T07:54:36;11.53;;;7.53;;
16393;SDS011;8306;51.128;4.476;2022-12-07T07:57:02;9.83;;;6.90;;
16393;SDS011;8306;51.128;4.476;2022-12-07T07:59:28;7.70;;;7.00;;
16393;SDS011;8306;51.128;4.476;2022-12-07T08:01:55;7.10;;;6.40;;
16393;SDS011;8306;51.128;4.476;2022-12-07T08:04:21;8.63;;;6.87;;
16393;SDS011;8306;51.128;4.476;2022-12-07T08:06:48;10.57;;;7.00;;
16393;SDS011;8306;51.128;4.476;2022-12-07T08:09:14;9.70;;;7.43;;
16393;SDS011;8306;51.128;4.476;2022-12-07T08:11:41;8.33;;;7.47;;
16393;SDS011;8306;51.128;4.476;2022-12-07T08:14:07;10.97;;;7.33;;
16393;SDS011;8306;51.128;4.476;2022-12-07T08:16:34;8.07;;;7.23;;
16393;SDS011;8306;51.128;4.476;2022-12-07T08:19:00;7.70;;;7.03;;
16393;SDS011;8306;51.128;4.476;2022-12-07T08:21:27;8.13;;;6.47;;
16393;SDS011;8306;51.128;4.476;2022-12-07T08:23:53;8.77;;;6.50;;
16393;SDS011;8306;51.128;4.476;2022-12-07T08:26:20;8.70;;;7.23;;
16393;SDS011;8306;51.128;4.476;2022-12-07T08:28:46;7.40;;;6.53;;
16393;SDS011;8306;51.128;4.476;2022-12-07T08:31:14;7.73;;;6.47;;
16393;SDS011;8306;51.128;4.476;2022-12-07T08:33:39;7.67;;;6.93;;
16393;SDS011;8306;51.128;4.476;2022-12-07T08:36:07;9.33;;;7.43;;
16393;SDS011;8306;51.128;4.476;2022-12-07T08:38:33;9.23;;;6.77;;
16393;SDS011;8306;51.128;4.476;2022-12-07T08:40:59;7.47;;;6.53;;
16393;SDS011;8306;51.128;4.476;2022-12-07T08:43:25;8.27;;;6.23;;
16393;SDS011;8306;51.128;4.476;2022-12-07T08:46:03;8.67;;;5.93;;
16393;SDS011;8306;51.128;4.476;2022-12-07T08:48:37;11.27;;;6.37;;
16393;SDS011;8306;51.128;4.476;2022-12-07T08:51:02;6.13;;;5.53;;
16393;SDS011;8306;51.128;4.476;2022-12-07T08:53:29;8.47;;;5.50;;
16393;SDS011;8306;51.128;4.476;2022-12-07T08:55:55;6.30;;;5.70;;
16393;SDS011;8306;51.128;4.476;2022-12-07T08:58:22;9.50;;;6.03;;
16393;SDS011;8306;51.128;4.476;2022-12-07T09:00:48;7.60;;;6.30;;
16393;SDS011;8306;51.128;4.476;2022-12-07T09:03:15;10.10;;;6.70;;
16393;SDS011;8306;51.128;4.476;2022-12-07T09:05:41;7.80;;;5.87;;
16393;SDS011;8306;51.128;4.476;2022-12-07T09:08:08;13.57;;;6.67;;
16393;SDS011;8306;51.128;4.476;2022-12-07T09:10:34;6.83;;;6.07;;
16393;SDS011;8306;51.128;4.476;2022-12-07T09:13:01;7.07;;;5.53;;
16393;SDS011;8306;51.128;4.476;2022-12-07T09:15:28;8.43;;;6.23;;
16393;SDS011;8306;51.128;4.476;2022-12-07T09:17:54;7.90;;;5.30;;
16393;SDS011;8306;51.128;4.476;2022-12-07T09:20:20;12.97;;;5.67;;
16393;SDS011;8306;51.128;4.476;2022-12-07T09:22:46;7.07;;;5.70;;
16393;SDS011;8306;51.128;4.476;2022-12-07T09:25:13;9.47;;;6.00;;
16393;SDS011;8306;51.128;4.476;2022-12-07T09:27:40;10.40;;;6.90;;
16393;SDS011;8306;51.128;4.476;2022-12-07T09:30:06;7.30;;;6.27;;
16393;SDS011;8306;51.128;4.476;2022-12-07T09:32:32;7.37;;;6.57;;
16393;SDS011;8306;51.128;4.476;2022-12-07T09:34:59;8.57;;;5.90;;
16393;SDS011;8306;51.128;4.476;2022-12-07T09:37:25;6.07;;;5.47;;
16393;SDS011;8306;51.128;4.476;2022-12-07T09:39:52;7.53;;;6.27;;
16393;SDS011;8306;51.128;4.476;2022-12-07T09:42:28;7.83;;;5.60;;
16393;SDS011;8306;51.128;4.476;2022-12-07T09:44:57;10.07;;;5.93;;
16393;SDS011;8306;51.128;4.476;2022-12-07T09:47:23;7.53;;;5.63;;
16393;SDS011;8306;51.128;4.476;2022-12-07T09:49:50;8.03;;;5.47;;
16393;SDS011;8306;51.128;4.476;2022-12-07T09:52:17;7.20;;;5.33;;
16393;SDS011;8306;51.128;4.476;2022-12-07T09:54:45;7.70;;;4.50;;
16393;SDS011;8306;51.128;4.476;2022-12-07T09:57:10;5.40;;;4.87;;
16393;SDS011;8306;51.128;4.476;2022-12-07T09:59:36;5.47;;;4.97;;
16393;SDS011;8306;51.128;4.476;2022-12-07T10:02:25;9.40;;;5.53;;
16393;SDS011;8306;51.128;4.476;2022-12-07T10:04:47;5.77;;;4.73;;
16393;SDS011;8306;51.128;4.476;2022-12-07T10:07:13;5.00;;;4.43;;
16393;SDS011;8306;51.128;4.476;2022-12-07T10:09:40;6.20;;;4.43;;
16393;SDS011;8306;51.128;4.476;2022-12-07T10:12:08;6.27;;;4.60;;
16393;SDS011;8306;51.128;4.476;2022-12-07T10:14:35;5.30;;;4.77;;
16393;SDS011;8306;51.128;4.476;2022-12-07T10:17:00;5.47;;;4.80;;
16393;SDS011;8306;51.128;4.476;2022-12-07T10:19:30;6.53;;;4.60;;
16393;SDS011;8306;51.128;4.476;2022-12-07T10:24:30;6.37;;;4.47;;
16393;SDS011;8306;51.128;4.476;2022-12-07T10:26:57;4.43;;;4.00;;
16393;SDS011;8306;51.128;4.476;2022-12-07T10:29:24;5.50;;;3.57;;
16393;SDS011;8306;51.128;4.476;2022-12-07T10:31:53;5.37;;;3.77;;
16393;SDS011;8306;51.128;4.476;2022-12-07T10:34:23;4.87;;;2.80;;
16393;SDS011;8306;51.128;4.476;2022-12-07T10:36:48;4.33;;;2.60;;
16393;SDS011;8306;51.128;4.476;2022-12-07T10:39:19;5.13;;;2.80;;
16393;SDS011;8306;51.128;4.476;2022-12-07T10:41:57;4.63;;;2.47;;
16393;SDS011;8306;51.128;4.476;2022-12-07T10:44:23;4.27;;;3.07;;
16393;SDS011;8306;51.128;4.476;2022-12-07T10:52:01;4.40;;;2.47;;
16393;SDS011;8306;51.128;4.476;2022-12-07T11:00:07;6.87;;;2.57;;
16393;SDS011;8306;51.128;4.476;2022-12-07T11:02:37;5.07;;;2.40;;
16393;SDS011;8306;51.128;4.476;2022-12-07T11:05:24;7.40;;;3.20;;
16393;SDS011;8306;51.128;4.476;2022-12-07T11:07:57;3.13;;;2.33;;
16393;SDS011;8306;51.128;4.476;2022-12-07T11:13:13;5.20;;;2.80;;
16393;SDS011;8306;51.128;4.476;2022-12-07T11:15:46;4.20;;;2.47;;
16393;SDS011;8306;51.128;4.476;2022-12-07T11:18:12;3.23;;;2.73;;
16393;SDS011;8306;51.128;4.476;2022-12-07T11:20:44;3.90;;;2.47;;
16393;SDS011;8306;51.128;4.476;2022-12-07T11:32:04;5.87;;;2.70;;
16393;SDS011;8306;51.128;4.476;2022-12-07T11:37:47;8.63;;;2.50;;
16393;SDS011;8306;51.128;4.476;2022-12-07T11:40:18;4.43;;;2.70;;
16393;SDS011;8306;51.128;4.476;2022-12-07T11:42:49;4.47;;;2.80;;
16393;SDS011;8306;51.128;4.476;2022-12-07T11:45:23;8.47;;;2.60;;
16393;SDS011;8306;51.128;4.476;2022-12-07T11:47:54;6.53;;;2.70;;
16393;SDS011;8306;51.128;4.476;2022-12-07T11:53:09;5.30;;;2.00;;
16393;SDS011;8306;51.128;4.476;2022-12-07T11:55:47;3.13;;;1.87;;
16393;SDS011;8306;51.128;4.476;2022-12-07T12:04:22;2.87;;;1.40;;
16393;SDS011;8306;51.128;4.476;2022-12-07T12:06:36;2.93;;;1.80;;
16393;SDS011;8306;51.128;4.476;2022-12-07T12:09:15;3.27;;;1.53;;
16393;SDS011;8306;51.128;4.476;2022-12-07T12:19:58;2.17;;;1.43;;
16393;SDS011;8306;51.128;4.476;2022-12-07T12:22:23;2.80;;;1.40;;
16393;SDS011;8306;51.128;4.476;2022-12-07T12:24:50;1.37;;;1.00;;
16393;SDS011;8306;51.128;4.476;2022-12-07T12:27:29;1.77;;;1.20;;
16393;SDS011;8306;51.128;4.476;2022-12-07T12:29:52;3.07;;;1.37;;
16393;SDS011;8306;51.128;4.476;2022-12-07T12:32:23;2.60;;;1.90;;
16393;SDS011;8306;51.128;4.476;2022-12-07T12:42:50;3.10;;;1.30;;
16393;SDS011;8306;51.128;4.476;2022-12-07T12:45:25;2.00;;;1.00;;
16393;SDS011;8306;51.128;4.476;2022-12-07T12:47:57;1.83;;;0.90;;
16393;SDS011;8306;51.128;4.476;2022-12-07T12:50:24;2.43;;;0.93;;
16393;SDS011;8306;51.128;4.476;2022-12-07T12:52:51;1.50;;;1.40;;
16393;SDS011;8306;51.128;4.476;2022-12-07T12:55:16;1.73;;;1.10;;
16393;SDS011;8306;51.128;4.476;2022-12-07T12:57:45;2.93;;;2.70;;
16393;SDS011;8306;51.128;4.476;2022-12-07T13:00:22;2.97;;;1.70;;
16393;SDS011;8306;51.128;4.476;2022-12-07T13:02:48;2.37;;;1.67;;
16393;SDS011;8306;51.128;4.476;2022-12-07T13:10:55;2.73;;;1.80;;
16393;SDS011;8306;51.128;4.476;2022-12-07T13:12:54;2.53;;;1.80;;
16393;SDS011;8306;51.128;4.476;2022-12-07T13:15:30;3.20;;;1.60;;
16393;SDS011;8306;51.128;4.476;2022-12-07T13:20:04;3.87;;;1.93;;
16393;SDS011;8306;51.128;4.476;2022-12-07T13:28:10;3.97;;;2.60;;
16393;SDS011;8306;51.128;4.476;2022-12-07T13:30:40;4.57;;;2.80;;
16393;SDS011;8306;51.128;4.476;2022-12-07T13:33:03;5.67;;;3.23;;
16393;SDS011;8306;51.128;4.476;2022-12-07T13:35:35;5.80;;;3.33;;
16393;SDS011;8306;51.128;4.476;2022-12-07T13:38:02;7.20;;;3.20;;
16393;SDS011;8306;51.128;4.476;2022-12-07T13:40:27;3.60;;;3.30;;
16393;SDS011;8306;51.128;4.476;2022-12-07T13:42:57;4.00;;;3.43;;
16393;SDS011;8306;51.128;4.476;2022-12-07T13:45:30;3.03;;;2.50;;
16393;SDS011;8306;51.128;4.476;2022-12-07T13:48:19;2.20;;;1.67;;
16393;SDS011;8306;51.128;4.476;2022-12-07T13:50:55;2.67;;;2.00;;
16393;SDS011;8306;51.128;4.476;2022-12-07T13:53:20;2.90;;;1.93;;
16393;SDS011;8306;51.128;4.476;2022-12-07T13:55:47;2.53;;;1.70;;
16393;SDS011;8306;51.128;4.476;2022-12-07T13:58:13;2.43;;;1.57;;
16393;SDS011;8306;51.128;4.476;2022-12-07T14:00:40;2.00;;;1.50;;
16393;SDS011;8306;51.128;4.476;2022-12-07T14:05:39;2.07;;;1.30;;
16393;SDS011;8306;51.128;4.476;2022-12-07T14:08:20;1.87;;;1.47;;
16393;SDS011;8306;51.128;4.476;2022-12-07T14:10:33;2.07;;;0.80;;
16393;SDS011;8306;51.128;4.476;2022-12-07T14:12:58;1.93;;;0.77;;
16393;SDS011;8306;51.128;4.476;2022-12-07T14:15:43;0.80;;;0.70;;
16393;SDS011;8306;51.128;4.476;2022-12-07T14:17:54;2.33;;;0.73;;
16393;SDS011;8306;51.128;4.476;2022-12-07T14:23:05;3.37;;;1.80;;
16393;SDS011;8306;51.128;4.476;2022-12-07T14:25:46;1.73;;;1.20;;
16393;SDS011;8306;51.128;4.476;2022-12-07T14:28:32;1.57;;;1.00;;
16393;SDS011;8306;51.128;4.476;2022-12-07T14:30:54;2.07;;;1.40;;
16393;SDS011;8306;51.128;4.476;2022-12-07T14:33:20;1.20;;;1.07;;
16393;SDS011;8306;51.128;4.476;2022-12-07T14:35:47;1.97;;;1.27;;
16393;SDS011;8306;51.128;4.476;2022-12-07T14:38:13;0.83;;;0.83;;
16393;SDS011;8306;51.128;4.476;2022-12-07T14:40:40;1.63;;;1.07;;
16393;SDS011;8306;51.128;4.476;2022-12-07T14:43:10;1.53;;;1.10;;
16393;SDS011;8306;51.128;4.476;2022-12-07T14:45:36;2.40;;;1.10;;
16393;SDS011;8306;51.128;4.476;2022-12-07T14:48:02;2.23;;;1.10;;
16393;SDS011;8306;51.128;4.476;2022-12-07T14:50:29;2.03;;;1.10;;
16393;SDS011;8306;51.128;4.476;2022-12-07T14:52:56;2.37;;;1.17;;
16393;SDS011;8306;51.128;4.476;2022-12-07T14:55:28;1.80;;;1.10;;
16393;SDS011;8306;51.128;4.476;2022-12-07T14:57:54;2.50;;;1.50;;
16393;SDS011;8306;51.128;4.476;2022-12-07T15:00:21;2.43;;;1.50;;
16393;SDS011;8306;51.128;4.476;2022-12-07T15:02:47;3.17;;;0.80;;
16393;SDS011;8306;51.128;4.476;2022-12-07T15:05:14;1.97;;;0.80;;
16393;SDS011;8306;51.128;4.476;2022-12-07T15:07:40;2.30;;;1.00;;
16393;SDS011;8306;51.128;4.476;2022-12-07T15:10:09;2.70;;;0.80;;
16393;SDS011;8306;51.128;4.476;2022-12-07T15:12:33;1.63;;;0.80;;
16393;SDS011;8306;51.128;4.476;2022-12-07T15:14:59;1.30;;;0.90;;
16393;SDS011;8306;51.128;4.476;2022-12-07T15:17:26;2.27;;;1.30;;
16393;SDS011;8306;51.128;4.476;2022-12-07T15:19:52;3.70;;;1.37;;
16393;SDS011;8306;51.128;4.476;2022-12-07T15:22:19;2.50;;;1.20;;
16393;SDS011;8306;51.128;4.476;2022-12-07T15:24:45;3.67;;;1.17;;
16393;SDS011;8306;51.128;4.476;2022-12-07T15:27:12;2.40;;;1.60;;
16393;SDS011;8306;51.128;4.476;2022-12-07T15:29:38;2.97;;;1.93;;
16393;SDS011;8306;51.128;4.476;2022-12-07T15:32:05;3.37;;;2.40;;
16393;SDS011;8306;51.128;4.476;2022-12-07T15:34:31;4.77;;;2.60;;
16393;SDS011;8306;51.128;4.476;2022-12-07T15:36:58;2.97;;;2.50;;
16393;SDS011;8306;51.128;4.476;2022-12-07T15:39:24;3.27;;;2.43;;
16393;SDS011;8306;51.128;4.476;2022-12-07T15:41:51;3.17;;;2.03;;
16393;SDS011;8306;51.128;4.476;2022-12-07T15:44:17;3.63;;;1.80;;
16393;SDS011;8306;51.128;4.476;2022-12-07T15:47:03;2.87;;;2.10;;
16393;SDS011;8306;51.128;4.476;2022-12-07T15:49:28;2.50;;;2.03;;
16393;SDS011;8306;51.128;4.476;2022-12-07T15:51:55;3.83;;;2.43;;
16393;SDS011;8306;51.128;4.476;2022-12-07T15:54:22;3.67;;;2.07;;
16393;SDS011;8306;51.128;4.476;2022-12-07T15:56:48;3.90;;;2.23;;
16393;SDS011;8306;51.128;4.476;2022-12-07T15:59:14;4.13;;;2.23;;
16393;SDS011;8306;51.128;4.476;2022-12-07T16:01:41;3.47;;;1.80;;
16393;SDS011;8306;51.128;4.476;2022-12-07T16:04:07;2.77;;;2.00;;
16393;SDS011;8306;51.128;4.476;2022-12-07T16:06:34;3.90;;;2.20;;
16393;SDS011;8306;51.128;4.476;2022-12-07T16:09:00;1.93;;;1.33;;
16393;SDS011;8306;51.128;4.476;2022-12-07T16:11:27;3.87;;;1.80;;
16393;SDS011;8306;51.128;4.476;2022-12-07T16:13:53;3.00;;;1.67;;
16393;SDS011;8306;51.128;4.476;2022-12-07T16:16:20;2.40;;;1.77;;
16393;SDS011;8306;51.128;4.476;2022-12-07T16:18:46;4.47;;;3.43;;
16393;SDS011;8306;51.128;4.476;2022-12-07T16:21:13;3.93;;;2.37;;
16393;SDS011;8306;51.128;4.476;2022-12-07T16:23:39;2.77;;;1.63;;
16393;SDS011;8306;51.128;4.476;2022-12-07T16:26:06;2.87;;;2.07;;
16393;SDS011;8306;51.128;4.476;2022-12-07T16:28:32;2.73;;;1.80;;
16393;SDS011;8306;51.128;4.476;2022-12-07T16:31:09;7.77;;;6.90;;
16393;SDS011;8306;51.128;4.476;2022-12-07T16:33:28;16.63;;;12.20;;
16393;SDS011;8306;51.128;4.476;2022-12-07T16:35:54;14.33;;;12.83;;
16393;SDS011;8306;51.128;4.476;2022-12-07T16:38:21;10.23;;;9.20;;
16393;SDS011;8306;51.128;4.476;2022-12-07T16:40:47;4.37;;;3.40;;
16393;SDS011;8306;51.128;4.476;2022-12-07T16:43:14;4.27;;;2.10;;